Time;durP1;ratioP1;P1;durP2;ratioP2;P2;SDS_P1;SDS_P2;PMS_P1;PMS_P2;Temp;Humidity;BMP_temperature;BMP_pressure;BME280_temperature;BME280_humidity;BME280_pressure;Samples;Min_cycle;Max_cycle;Signal;HPM_P1;HPM_P2
2022/09/09 00:01:20;;;;;;;8.00;4.40;;;;;;;10.23;60.68;100085.03;109305;1276;22496;-58
2022/09/09 00:03:51;;;;;;;7.30;4.40;;;;;;;10.20;60.68;100088.23;109086;1276;138685;-58
2022/09/09 00:06:22;;;;;;;12.90;4.80;;;;;;;10.15;60.94;100084.73;109393;1276;23331;-57
2022/09/09 00:09:12;;;;;;;6.40;3.80;;;;;;;10.13;60.97;100087.88;109229;1276;22452;-57
2022/09/09 00:11:52;;;;;;;7.10;4.70;;;;;;;10.09;61.16;100087.33;109216;1276;23203;-58
2022/09/09 00:14:37;;;;;;;7.80;3.60;;;;;;;10.07;61.29;100087.35;109336;1276;22465;-57
2022/09/09 00:17:10;;;;;;;7.10;4.40;;;;;;;10.03;61.37;100087.20;109173;1276;138702;-58
2022/09/09 00:19:55;;;;;;;10.40;4.40;;;;;;;10.01;61.49;100086.70;109390;1275;22452;-57
2022/09/09 00:22:23;;;;;;;6.90;4.00;;;;;;;9.99;61.52;100087.95;109169;1274;138829;-58
2022/09/09 00:24:53;;;;;;;8.50;4.30;;;;;;;9.97;61.73;100095.82;109291;1274;22447;-57
2022/09/09 00:27:38;;;;;;;8.40;4.50;;;;;;;9.94;61.74;100099.11;109210;1276;137886;-57
2022/09/09 00:30:10;;;;;;;6.60;4.30;;;;;;;9.92;61.80;100101.25;109207;1277;22530;-57
2022/09/09 00:32:37;;;;;;;8.00;4.10;;;;;;;9.90;61.95;100108.65;109355;1276;22490;-57
2022/09/09 00:35:17;;;;;;;;;;;;;;;9.89;61.90;100110.73;109160;1277;139379;-57
2022/09/09 00:37:47;;;;;;;12.30;4.20;;;;;;;9.88;61.92;100117.20;109245;1276;22465;-57
2022/09/09 00:40:22;;;;;;;7.10;4.00;;;;;;;9.86;62.02;100116.11;108996;1277;139308;-57
2022/09/09 00:42:52;;;;;;;6.60;3.70;;;;;;;9.85;62.13;100126.27;109197;1277;22459;-57
2022/09/09 00:45:43;;;;;;;8.30;4.30;;;;;;;9.83;62.14;100126.77;109107;1277;137947;-57
2022/09/09 00:48:10;;;;;;;6.60;4.20;;;;;;;9.82;62.13;100126.85;109192;1276;22472;-57
2022/09/09 00:50:46;;;;;;;7.60;4.20;;;;;;;9.81;62.32;100131.41;109046;1278;23248;-57
2022/09/09 00:53:22;;;;;;;8.40;3.90;;;;;;;9.77;62.39;100133.57;109214;1277;137562;-57
2022/09/09 00:56:19;;;;;;;5.70;3.50;;;;;;;9.74;62.49;100135.92;109338;1276;23018;-57
2022/09/09 00:59:16;;;;;;;6.20;3.80;;;;;;;9.71;62.53;100135.39;109121;1277;137508;-57
2022/09/09 01:01:43;;;;;;;9.50;4.70;;;;;;;9.71;62.64;100134.17;109151;1277;22455;-57
2022/09/09 01:04:16;;;;;;;7.20;4.00;;;;;;;9.71;62.56;100137.15;109187;1276;138076;-57
2022/09/09 01:06:44;;;;;;;6.70;3.70;;;;;;;9.69;62.56;100136.34;109277;1276;22483;-57
2022/09/09 01:09:29;;;;;;;9.00;4.30;;;;;;;9.66;62.63;100138.70;108975;1277;137525;-58
2022/09/09 01:12:06;;;;;;;8.80;4.30;;;;;;;9.63;62.80;100142.88;109036;1275;22509;-58
2022/09/09 01:14:39;;;;;;;8.30;4.10;;;;;;;9.59;62.83;100141.14;109175;1276;22452;-58
2022/09/09 01:17:14;;;;;;;7.80;3.90;;;;;;;9.56;62.90;100143.45;109036;1276;137410;-58
2022/09/09 01:19:43;;;;;;;6.50;4.00;;;;;;;9.51;62.94;100144.33;109025;1277;23255;-58
2022/09/09 01:22:34;;;;;;;6.10;3.90;;;;;;;9.47;63.22;100143.09;109036;1275;137586;-58
2022/09/09 01:25:25;;;;;;;6.20;3.60;;;;;;;9.43;63.39;100139.57;109377;1275;22399;-57
2022/09/09 01:28:08;;;;;;;8.30;3.50;;;;;;;9.40;63.52;100137.61;109180;1277;138173;-58
2022/09/09 01:30:38;;;;;;;6.10;3.60;;;;;;;9.35;63.58;100135.66;108999;1277;22444;-58
2022/09/09 01:33:08;;;;;;;6.30;3.50;;;;;;;9.32;63.78;100135.16;109087;1277;22447;-58
2022/09/09 01:35:44;;;;;;;7.20;3.80;;;;;;;9.29;63.87;100134.70;109297;1277;22431;-58
2022/09/09 01:38:11;;;;;;;8.40;3.90;;;;;;;9.27;63.95;100129.30;109291;1277;22393;-58
2022/09/09 01:40:38;;;;;;;;;;;;;;;9.24;64.07;100127.66;109207;1274;138617;-58
2022/09/09 01:43:05;;;;;;;8.10;4.10;;;;;;;9.20;64.30;100128.20;109171;1277;22434;-58
2022/09/09 01:45:31;;;;;;;;;;;;;;;9.17;64.39;100131.69;109083;1276;138650;-57
2022/09/09 01:47:58;;;;;;;9.30;3.90;;;;;;;9.15;64.55;100134.48;109366;1277;22580;-57
2022/09/09 01:50:45;;;;;;;5.40;3.40;;;;;;;9.13;64.78;100129.69;109336;1275;23400;-57
2022/09/09 01:53:12;;;;;;;6.50;3.40;;;;;;;9.12;64.70;100129.33;108957;1277;139466;-57
2022/09/09 01:55:42;;;;;;;5.60;3.80;;;;;;;9.10;64.97;100128.20;109176;1277;23518;-57
2022/09/09 01:58:58;;;;;;;7.10;3.80;;;;;;;9.08;64.94;100124.30;109177;1277;137303;-57
2022/09/09 02:01:29;;;;;;;8.20;4.10;;;;;;;9.04;65.03;100125.84;108694;1281;22516;-57
2022/09/09 02:03:57;;;;;;;6.10;3.70;;;;;;;9.01;65.05;100123.29;108382;1284;137376;-57
2022/09/09 02:06:27;;;;;;;7.90;4.30;;;;;;;8.98;65.14;100124.41;108528;1281;23231;-58
2022/09/09 02:08:59;;;;;;;8.50;4.20;;;;;;;8.96;65.25;100123.73;108547;1281;22454;-58
2022/09/09 02:11:27;;;;;;;6.10;3.50;;;;;;;8.94;65.35;100126.54;108313;1283;137522;-58
2022/09/09 02:14:10;;;;;;;9.40;3.90;;;;;;;8.91;65.38;100127.55;108713;1281;23257;-58
2022/09/09 02:16:42;;;;;;;6.40;3.60;;;;;;;8.89;65.76;100127.78;108573;1277;140267;-58
2022/09/09 02:19:25;;;;;;;7.00;3.80;;;;;;;8.88;65.72;100124.73;108754;1279;23311;-58
2022/09/09 02:22:02;;;;;;;8.70;4.20;;;;;;;8.86;65.83;100119.70;108815;1279;139467;-58
2022/09/09 02:24:29;;;;;;;;;;;;;;;8.85;66.01;100124.69;108751;1280;23209;-57
2022/09/09 02:27:08;;;;;;;7.20;3.90;;;;;;;8.86;66.08;100122.64;108969;1279;22518;-57
2022/09/09 02:29:41;;;;;;;5.80;3.60;;;;;;;8.85;65.96;100127.95;108905;1280;22406;-57
2022/09/09 02:32:13;;;;;;;5.50;3.20;;;;;;;8.85;66.17;100123.52;108906;1274;23241;-57
2022/09/09 02:34:47;;;;;;;7.70;3.90;;;;;;;8.83;66.19;100125.96;109300;1273;139923;-57
2022/09/09 02:37:15;;;;;;;6.90;3.60;;;;;;;8.82;66.15;100124.43;109317;1273;22454;-58
2022/09/09 02:39:44;;;;;;;11.50;3.80;;;;;;;8.83;66.16;100118.20;109041;1273;138577;-57
2022/09/09 02:42:14;;;;;;;6.50;3.70;;;;;;;8.83;66.21;100121.84;109450;1273;22439;-57
2022/09/09 02:44:41;;;;;;;8.60;3.90;;;;;;;8.83;66.22;100119.91;109377;1273;22515;-57
2022/09/09 02:47:30;;;;;;;8.20;3.60;;;;;;;8.85;66.16;100118.25;109152;1274;139953;-58
2022/09/09 02:50:13;;;;;;;5.30;3.40;;;;;;;8.87;66.18;100116.69;109342;1273;23644;-57
2022/09/09 02:53:07;;;;;;;5.30;3.40;;;;;;;8.88;66.26;100113.79;109388;1273;140162;-57
2022/09/09 02:55:39;;;;;;;9.40;4.20;;;;;;;8.88;66.17;100113.92;109303;1273;22455;-57
2022/09/09 02:58:11;;;;;;;6.80;4.10;;;;;;;8.86;66.16;100111.17;109157;1273;138321;-57
2022/09/09 03:00:39;;;;;;;7.60;4.40;;;;;;;8.84;66.11;100114.59;109382;1271;23221;-57
2022/09/09 03:03:08;;;;;;;8.90;4.00;;;;;;;8.82;66.17;100119.33;109307;1273;22608;-57
2022/09/09 03:05:35;;;;;;;7.10;4.00;;;;;;;8.80;66.26;100122.27;109326;1273;138225;-57
2022/09/09 03:08:05;;;;;;;6.60;3.50;;;;;;;8.77;66.12;100119.36;109326;1274;23177;-57
2022/09/09 03:10:32;;;;;;;6.70;3.50;;;;;;;8.72;66.28;100119.61;109430;1273;138413;-57
2022/09/09 03:12:59;;;;;;;7.00;4.00;;;;;;;8.69;66.52;100120.66;109449;1273;22438;-57
2022/09/09 03:15:31;;;;;;;9.50;3.60;;;;;;;8.67;66.72;100126.41;109275;1273;139772;-57
2022/09/09 03:17:58;;;;;;;7.80;4.20;;;;;;;8.67;66.68;100136.27;109290;1274;22505;-57
2022/09/09 03:20:26;;;;;;;6.20;3.70;;;;;;;8.64;66.66;100137.71;109367;1273;22458;-57
2022/09/09 03:22:53;;;;;;;8.00;4.10;;;;;;;8.62;66.89;100138.46;109436;1274;138513;-57
2022/09/09 03:25:20;;;;;;;8.60;3.70;;;;;;;8.61;66.84;100139.17;109370;1273;23663;-57
2022/09/09 03:27:47;;;;;;;;;;;;;;;8.59;67.18;100137.88;109392;1273;139283;-57
2022/09/09 03:30:15;;;;;;;8.80;4.40;;;;;;;8.59;67.27;100140.66;109452;1273;22520;-57
2022/09/09 03:32:42;;;;;;;7.30;4.10;;;;;;;8.59;67.31;100142.13;109394;1273;22531;-57
2022/09/09 03:35:15;;;;;;;8.40;4.00;;;;;;;8.59;67.33;100146.10;109391;1273;139048;-58
2022/09/09 03:37:42;;;;;;;5.80;3.80;;;;;;;8.60;67.41;100147.04;109475;1273;22441;-58
2022/09/09 03:40:10;;;;;;;7.50;3.80;;;;;;;8.60;67.43;100150.46;109288;1273;138548;-58
2022/09/09 03:42:37;;;;;;;5.70;3.70;;;;;;;8.62;67.48;100149.70;109483;1273;24351;-58
2022/09/09 03:45:08;;;;;;;11.90;3.70;;;;;;;8.62;67.54;100149.83;109439;1273;23202;-58
2022/09/09 03:47:36;;;;;;;10.70;3.90;;;;;;;8.62;67.59;100143.52;109248;1274;139791;-58
2022/09/09 03:50:08;;;;;;;6.60;3.60;;;;;;;8.63;67.45;100144.37;109530;1273;22410;-58
2022/09/09 03:52:37;;;;;;;7.20;3.90;;;;;;;8.65;67.55;100145.51;109365;1274;138594;-58
2022/09/09 03:55:05;;;;;;;8.60;4.10;;;;;;;8.67;67.56;100143.46;109346;1273;22409;-58
2022/09/09 03:57:34;;;;;;;10.30;3.80;;;;;;;8.69;67.56;100143.02;109408;1273;138557;-58
2022/09/09 04:00:06;;;;;;;8.10;4.50;;;;;;;8.72;67.39;100150.84;109445;1273;22493;-58
2022/09/09 04:02:43;;;;;;;8.40;4.20;;;;;;;8.72;67.48;100151.55;109478;1273;23078;-58
2022/09/09 04:05:12;;;;;;;8.00;4.00;;;;;;;8.75;67.60;100151.30;109250;1273;137629;-59
2022/09/09 04:07:40;;;;;;;7.10;4.20;;;;;;;8.80;67.59;100149.27;109384;1273;22539;-58
2022/09/09 04:10:08;;;;;;;6.70;4.20;;;;;;;8.93;67.42;100152.38;109329;1274;141884;-58
2022/09/09 04:12:35;;;;;;;6.30;3.90;;;;;;;9.09;67.23;100152.38;109383;1273;22261;-58
2022/09/09 04:15:02;;;;;;;;;;;;;;;9.28;66.81;100157.31;109362;1273;23602;-58
2022/09/09 04:17:30;;;;;;;8.20;3.40;;;;;;;9.40;66.37;100159.77;109266;1273;124401;-58
2022/09/09 04:19:57;;;;;;;8.40;3.50;;;;;;;9.46;66.02;100157.68;109342;1273;22500;-59
2022/09/09 04:22:23;;;;;;;12.10;4.50;;;;;;;9.51;65.73;100159.79;109269;1273;139933;-58
2022/09/09 04:24:50;;;;;;;6.70;3.80;;;;;;;9.53;65.55;100161.02;109475;1273;23129;-58
2022/09/09 04:27:17;;;;;;;6.00;3.70;;;;;;;9.51;65.41;100166.04;109305;1273;138169;-59
2022/09/09 04:29:44;;;;;;;8.30;4.20;;;;;;;9.48;65.44;100171.67;109440;1273;22396;-58
2022/09/09 04:32:11;;;;;;;7.00;3.70;;;;;;;9.47;65.42;100169.48;109331;1273;23064;-58
2022/09/09 04:34:39;;;;;;;5.70;4.00;;;;;;;9.46;65.43;100172.67;109315;1273;139590;-58
2022/09/09 04:37:06;;;;;;;9.10;4.70;;;;;;;9.45;65.40;100176.83;109475;1273;22454;-58
2022/09/09 04:39:33;;;;;;;7.20;4.10;;;;;;;9.44;65.36;100183.49;109258;1273;139164;-58
2022/09/09 04:42:00;;;;;;;7.20;4.00;;;;;;;9.42;65.43;100187.95;109530;1273;22469;-58
2022/09/09 04:44:27;;;;;;;;;;;;;;;9.41;65.48;100189.72;109370;1273;22494;-58
2022/09/09 04:46:54;;;;;;;6.10;3.90;;;;;;;9.44;65.62;100192.14;109316;1273;124598;-58
2022/09/09 04:49:21;;;;;;;7.60;4.30;;;;;;;9.51;65.36;100190.95;109389;1274;22406;-58
2022/09/09 04:51:51;;;;;;;6.30;3.50;;;;;;;9.58;65.42;100190.95;109276;1273;138871;-58
2022/09/09 04:54:18;;;;;;;8.20;4.40;;;;;;;9.65;65.32;100186.94;109305;1273;24471;-58
2022/09/09 04:56:46;;;;;;;5.90;3.70;;;;;;;9.72;65.21;100185.90;109394;1273;23664;-58
2022/09/09 04:59:12;;;;;;;;;;;;;;;9.78;64.82;100188.66;109284;1273;139254;-58
2022/09/09 05:01:43;;;;;;;6.50;4.20;;;;;;;9.81;64.78;100186.78;109355;1272;22467;-58
2022/09/09 05:04:10;;;;;;;5.80;3.80;;;;;;;9.86;64.48;100184.06;109290;1273;139911;-58
2022/09/09 05:06:37;;;;;;;9.10;3.80;;;;;;;9.92;64.29;100178.05;109421;1273;22587;-57
2022/09/09 05:09:04;;;;;;;8.70;4.10;;;;;;;9.98;63.86;100174.80;109353;1273;22467;-58
2022/09/09 05:11:32;;;;;;;;;;;;;;;10.04;63.36;100171.34;109324;1273;139455;-58
2022/09/09 05:14:17;;;;;;;8.60;3.70;;;;;;;10.07;62.93;100165.55;109353;1274;22445;-58
2022/09/09 05:16:47;;;;;;;8.60;3.90;;;;;;;10.12;62.84;100160.78;109366;1273;138030;-58
2022/09/09 05:19:13;;;;;;;9.00;5.10;;;;;;;10.17;62.44;100157.47;109321;1273;22433;-57
2022/09/09 05:21:43;;;;;;;53.00;23.40;;;;;;;10.23;62.13;100158.50;109282;1273;139947;-57
2022/09/09 05:24:11;;;;;;;47.30;19.20;;;;;;;10.32;62.06;100156.40;109397;1273;22416;-58
2022/09/09 05:26:38;;;;;;;49.70;22.60;;;;;;;10.44;61.84;100144.21;109493;1273;23208;-58
2022/09/09 05:29:06;;;;;;;20.40;9.40;;;;;;;10.56;61.49;100149.98;109203;1273;139087;-58
2022/09/09 05:31:32;;;;;;;;;;;;;;;10.68;61.35;100157.34;108242;1273;1696794;-58
2022/09/09 05:35:24;;;;;;;11.60;5.70;;;;;;;10.88;61.30;100153.89;101689;1309;545241;-58
2022/09/09 05:37:51;;;;;;;13.80;4.50;;;;;;;10.97;60.16;100148.84;104199;1287;24283;-57
2022/09/09 05:40:18;;;;;;;12.40;5.40;;;;;;;11.05;60.02;100157.44;104028;1287;137695;-60
2022/09/09 05:42:45;;;;;;;10.00;4.30;;;;;;;11.10;59.40;100171.61;108311;1286;22534;-59
2022/09/09 05:45:12;;;;;;;;;;;;;;;11.13;59.32;100176.70;108235;1287;136914;-58
2022/09/09 05:47:39;;;;;;;5.40;3.30;;;;;;;11.17;59.09;100174.27;108167;1287;22539;-57
2022/09/09 05:50:07;;;;;;;4.40;3.40;;;;;;;11.21;58.56;100167.21;107285;1283;1365286;-56
2022/09/09 05:52:34;;;;;;;5.50;2.70;;;;;;;11.24;58.30;100165.96;108244;1284;138510;-56
2022/09/09 05:55:04;;;;;;;17.60;5.20;;;;;;;11.24;57.97;100171.85;108477;1284;22471;-57
2022/09/09 05:57:31;;;;;;;12.50;4.50;;;;;;;11.23;58.12;100176.63;108352;1284;137519;-58
2022/09/09 05:59:58;;;;;;;6.50;2.90;;;;;;;11.23;58.39;100181.81;108273;1283;22404;-57
2022/09/09 06:02:24;;;;;;;;;;;;;;;11.25;58.21;100187.41;108462;1283;22535;-58
2022/09/09 06:04:51;;;;;;;10.10;3.30;;;;;;;11.28;58.33;100193.13;108384;1284;125286;-56
2022/09/09 06:07:22;;;;;;;8.70;3.30;;;;;;;11.31;58.71;100196.41;108308;1286;22467;-57
2022/09/09 06:09:51;;;;;;;7.50;3.40;;;;;;;11.36;58.85;100194.64;108346;1284;137985;-57
2022/09/09 06:12:17;;;;;;;6.70;3.90;;;;;;;11.42;58.57;100183.22;108364;1284;22922;-58
2022/09/09 06:14:45;;;;;;;6.20;3.70;;;;;;;11.50;57.94;100177.52;108358;1284;22541;-59
2022/09/09 06:17:13;;;;;;;7.80;3.20;;;;;;;11.54;57.41;100179.70;108244;1284;137549;-58
2022/09/09 06:19:40;;;;;;;5.90;3.00;;;;;;;11.56;56.89;100182.80;108331;1284;23538;-58
2022/09/09 06:22:06;;;;;;;;;;;;;;;11.56;56.99;100180.48;108388;1284;138197;-59
2022/09/09 06:24:35;;;;;;;4.80;3.00;;;;;;;11.56;56.95;100179.26;108316;1284;22459;-59
2022/09/09 06:27:01;;;;;;;;;;;;;;;11.59;56.72;100185.52;108522;1284;22671;-59
2022/09/09 06:29:31;;;;;;;8.10;4.20;;;;;;;11.64;57.08;100183.98;108244;1284;123562;-58
2022/09/09 06:32:00;;;;;;;6.30;3.70;;;;;;;11.73;57.50;100183.67;108322;1284;22455;-58
2022/09/09 06:34:26;;;;;;;7.30;3.80;;;;;;;11.84;57.54;100187.58;109352;1274;137484;-59
2022/09/09 06:36:57;;;;;;;4.70;3.30;;;;;;;11.94;56.99;100191.73;109484;1273;22275;-59
2022/09/09 06:39:25;;;;;;;6.50;3.60;;;;;;;12.03;56.50;100189.50;109309;1274;139366;-59
2022/09/09 06:41:53;;;;;;;9.70;3.90;;;;;;;12.10;56.60;100186.82;109444;1273;22559;-58
2022/09/09 06:44:55;;;;;;;9.40;4.00;;;;;;;12.18;56.71;100188.42;109207;1274;22436;-58
2022/09/09 06:47:34;;;;;;;6.70;4.20;;;;;;;12.29;56.54;100186.30;109368;1274;138878;-58
2022/09/09 06:50:00;;;;;;;;;;;;;;;12.39;56.57;100185.15;109514;1272;22505;-58
2022/09/09 06:52:28;;;;;;;12.50;3.70;;;;;;;12.50;56.53;100189.55;109369;1274;124366;-58
2022/09/09 06:54:58;;;;;;;7.40;3.50;;;;;;;12.59;55.93;100186.70;109400;1274;23265;-59
2022/09/09 06:57:25;;;;;;;8.50;3.30;;;;;;;12.68;56.11;100194.48;109324;1274;137871;-58
2022/09/09 07:00:04;;;;;;;7.20;3.90;;;;;;;12.77;55.46;100196.33;109457;1274;23186;-58
2022/09/09 07:02:31;;;;;;;9.50;3.30;;;;;;;12.82;55.48;100194.25;109430;1274;22406;-58
2022/09/09 07:04:58;;;;;;;;;;;;;;;12.85;55.66;100195.30;109425;1274;139209;-57
2022/09/09 07:07:25;;;;;;;9.30;3.40;;;;;;;12.89;55.49;100203.77;109436;1274;23284;-57
2022/09/09 07:09:52;;;;;;;;;;;;;;;12.92;55.21;100199.56;109300;1274;137683;-57
2022/09/09 07:12:20;;;;;;;6.50;3.50;;;;;;;12.97;55.10;100194.73;109417;1274;22451;-57
2022/09/09 07:14:52;;;;;;;7.70;3.90;;;;;;;13.02;54.97;100190.20;109388;1274;22576;-57
2022/09/09 07:17:19;;;;;;;;;;;;;;;13.07;55.35;100183.53;109324;1274;137885;-58
2022/09/09 07:19:45;;;;;;;7.50;3.80;;;;;;;13.16;55.67;100187.73;109527;1274;22442;-57
2022/09/09 07:22:13;;;;;;;7.90;3.70;;;;;;;13.25;54.86;100189.59;109327;1274;137617;-58
2022/09/09 07:24:40;;;;;;;6.00;3.40;;;;;;;13.32;54.85;100196.91;109389;1274;22435;-57
2022/09/09 07:27:07;;;;;;;6.20;3.10;;;;;;;13.37;54.50;100198.62;109395;1271;22458;-57
2022/09/09 07:29:34;;;;;;;5.10;3.00;;;;;;;13.43;53.79;100200.14;109384;1274;136972;-58
2022/09/09 07:32:03;;;;;;;8.40;3.50;;;;;;;13.49;53.49;100198.72;109482;1274;22564;-58
2022/09/09 07:34:34;;;;;;;10.90;3.90;;;;;;;13.52;52.96;100188.52;109324;1274;137500;-58
2022/09/09 07:37:01;;;;;;;9.30;3.30;;;;;;;13.51;52.98;100184.17;109452;1273;22555;-58
2022/09/09 07:39:29;;;;;;;6.80;3.10;;;;;;;13.48;52.83;100185.58;109317;1274;137380;-57
2022/09/09 07:41:56;;;;;;;4.40;2.80;;;;;;;13.48;52.31;100192.48;109373;1274;22375;-57
2022/09/09 07:44:24;;;;;;;10.70;3.30;;;;;;;13.47;52.62;100196.23;109461;1274;22607;-58
2022/09/09 07:47:17;;;;;;;23.30;4.30;;;;;;;13.44;52.58;100195.22;109379;1273;137633;-58
2022/09/09 07:49:46;;;;;;;12.60;3.90;;;;;;;13.43;52.63;100193.41;109451;1274;22521;-57
2022/09/09 07:52:16;;;;;;;6.00;2.70;;;;;;;13.48;52.63;100186.94;109291;1274;138272;-57
2022/09/09 07:54:46;;;;;;;3.70;2.40;;;;;;;13.57;51.99;100188.33;109382;1273;23351;-57
2022/09/09 07:57:13;;;;;;;11.20;2.90;;;;;;;13.65;51.99;100189.34;109296;1274;139572;-57
2022/09/09 07:59:40;;;;;;;6.30;3.10;;;;;;;13.72;51.58;100183.79;109546;1273;22532;-56
2022/09/09 08:02:09;;;;;;;6.30;2.30;;;;;;;13.79;51.59;100182.27;109445;1274;22490;-57
2022/09/09 08:04:36;;;;;;;8.00;2.20;;;;;;;13.89;51.78;100180.80;109384;1273;137498;-56
2022/09/09 08:07:03;;;;;;;5.60;2.50;;;;;;;14.01;51.19;100180.81;109411;1274;22457;-57
2022/09/09 08:09:33;;;;;;;4.90;2.20;;;;;;;14.12;50.75;100178.04;109338;1274;138247;-58
2022/09/09 08:12:12;;;;;;;5.80;2.50;;;;;;;14.22;50.00;100173.88;109413;1273;23290;-58
2022/09/09 08:14:39;;;;;;;4.60;2.20;;;;;;;14.30;49.89;100173.27;109409;1274;22485;-58
2022/09/09 08:17:06;;;;;;;4.80;1.90;;;;;;;14.37;49.94;100170.17;109375;1274;137166;-58
2022/09/09 08:19:35;;;;;;;5.30;2.10;;;;;;;14.46;49.08;100173.02;109464;1274;22439;-58
2022/09/09 08:22:04;;;;;;;8.70;2.20;;;;;;;14.53;48.19;100175.33;109332;1274;139335;-58
2022/09/09 08:24:31;;;;;;;5.50;2.30;;;;;;;14.60;48.11;100176.54;109407;1274;22544;-58
2022/09/09 08:26:59;;;;;;;13.60;3.30;;;;;;;14.65;47.92;100181.29;109450;1273;22462;-58
2022/09/09 08:29:27;;;;;;;8.10;2.00;;;;;;;14.70;47.92;100180.59;109318;1274;138007;-58
2022/09/09 08:31:57;;;;;;;2.30;1.40;;;;;;;14.76;47.55;100178.96;109451;1274;22483;-58
2022/09/09 08:34:26;;;;;;;5.90;1.80;;;;;;;14.81;46.98;100180.64;109403;1274;138016;-58
2022/09/09 08:36:54;;;;;;;5.40;2.20;;;;;;;14.86;46.56;100182.95;109413;1274;22446;-58
2022/09/09 08:39:26;;;;;;;4.90;2.10;;;;;;;14.89;46.47;100184.04;108707;1274;137558;-58
2022/09/09 08:42:02;;;;;;;7.50;2.10;;;;;;;14.90;47.13;100178.23;105334;1274;24332;-57
2022/09/09 08:44:55;;;;;;;5.80;2.30;;;;;;;14.92;46.93;100177.20;105198;1275;24313;-57
2022/09/09 08:47:39;;;;;;;9.30;3.80;;;;;;;14.97;46.54;100170.36;105279;1274;139276;-57
2022/09/09 08:50:13;;;;;;;10.40;2.80;;;;;;;15.01;46.50;100168.34;109385;1274;22453;-58
2022/09/09 08:53:05;;;;;;;6.50;2.10;;;;;;;15.06;46.52;100167.35;109380;1273;139759;-58
2022/09/09 08:55:36;;;;;;;2.90;1.80;;;;;;;15.09;46.79;100167.41;109287;1274;23779;-58
2022/09/09 08:58:13;;;;;;;11.70;2.20;;;;;;;15.12;45.93;100168.14;109327;1274;137301;-58
2022/09/09 09:01:00;;;;;;;13.50;2.30;;;;;;;15.14;45.77;100165.66;109349;1274;23223;-58
2022/09/09 09:03:27;;;;;;;13.30;1.80;;;;;;;15.16;45.99;100156.48;109212;1273;138209;-58
2022/09/09 09:06:26;;;;;;;4.90;2.30;;;;;;;15.17;46.01;100153.96;109287;1274;23104;-58
2022/09/09 09:09:13;;;;;;;2.60;1.50;;;;;;;15.20;46.45;100150.08;109473;1273;23083;-57
2022/09/09 09:11:47;;;;;;;5.40;2.00;;;;;;;15.27;46.11;100140.16;109451;1274;23235;-58
2022/09/09 09:14:30;;;;;;;6.20;2.30;;;;;;;15.33;46.11;100140.91;109353;1274;23771;-57
2022/09/09 09:17:00;;;;;;;5.40;2.10;;;;;;;15.38;45.25;100141.58;109253;1274;139420;-57
2022/09/09 09:19:28;;;;;;;16.10;2.30;;;;;;;15.39;45.09;100136.54;109301;1275;23328;-58
2022/09/09 09:22:17;;;;;;;2.70;1.50;;;;;;;15.38;44.44;100137.68;109322;1274;138660;-58
2022/09/09 09:24:55;;;;;;;11.90;2.50;;;;;;;15.36;43.81;100142.79;109360;1272;23365;-57
2022/09/09 09:27:34;;;;;;;9.40;2.00;;;;;;;15.36;43.61;100145.86;109296;1274;137906;-57
2022/09/09 09:30:26;;;;;;;3.90;1.60;;;;;;;15.37;43.89;100155.36;109358;1274;22616;-57
2022/09/09 09:33:03;;;;;;;12.70;2.20;;;;;;;15.36;43.83;100153.39;109364;1274;22654;-57
2022/09/09 09:35:29;;;;;;;4.30;1.40;;;;;;;15.39;44.06;100146.37;109378;1271;138112;-57
2022/09/09 09:37:56;;;;;;;3.00;1.60;;;;;;;15.44;44.20;100142.41;109477;1271;23425;-57
2022/09/09 09:40:57;;;;;;;5.10;1.80;;;;;;;15.53;44.99;100145.38;109272;1271;137911;-57
2022/09/09 09:43:27;;;;;;;4.70;1.80;;;;;;;15.65;44.23;100142.64;109452;1274;22445;-57
2022/09/09 09:45:55;;;;;;;6.20;2.50;;;;;;;15.77;43.86;100143.94;109311;1271;139597;-57
2022/09/09 09:48:42;;;;;;;3.60;1.50;;;;;;;15.87;42.71;100138.60;109429;1271;22462;-57
2022/09/09 09:51:10;;;;;;;5.60;1.40;;;;;;;15.90;42.64;100136.77;109503;1274;23508;-57
2022/09/09 09:53:38;;;;;;;4.00;1.90;;;;;;;15.90;42.75;100134.69;109448;1271;23255;-57
2022/09/09 09:56:10;;;;;;;4.00;1.60;;;;;;;15.93;41.62;100135.73;109258;1274;22461;-57
2022/09/09 09:58:50;;;;;;;8.30;2.20;;;;;;;15.91;41.29;100132.59;109270;1271;138465;-58
2022/09/09 10:01:29;;;;;;;7.90;1.60;;;;;;;15.85;41.52;100133.95;109386;1271;23218;-63
2022/09/09 10:04:13;;;;;;;8.40;1.80;;;;;;;15.84;41.62;100139.22;109245;1271;138227;-57
2022/09/09 10:06:40;;;;;;;5.40;1.70;;;;;;;15.85;41.42;100147.41;109450;1273;22495;-57
2022/09/09 10:09:33;;;;;;;4.30;1.80;;;;;;;15.89;41.79;100147.11;109484;1274;22484;-56
2022/09/09 10:12:15;;;;;;;6.80;1.70;;;;;;;15.96;41.06;100145.18;109435;1274;22467;-57
2022/09/09 10:14:52;;;;;;;5.60;1.60;;;;;;;16.00;41.24;100144.63;109552;1271;23206;-58
2022/09/09 10:17:22;;;;;;;;;;;;;;;16.01;41.52;100138.15;109236;1271;139156;-58
2022/09/09 10:20:00;;;;;;;3.30;1.40;;;;;;;16.03;42.04;100141.58;109519;1274;22451;-58
2022/09/09 10:22:28;;;;;;;6.40;1.40;;;;;;;16.07;42.46;100134.65;109429;1271;139839;-58
2022/09/09 10:25:18;;;;;;;2.10;1.40;;;;;;;16.13;42.47;100131.95;109483;1271;22455;-57
2022/09/09 10:27:51;;;;;;;7.70;1.60;;;;;;;16.22;40.71;100128.61;109329;1274;138174;-58
2022/09/09 10:30:55;;;;;;;4.30;1.50;;;;;;;16.27;40.77;100130.20;109587;1271;22567;-58
2022/09/09 10:33:37;;;;;;;3.80;1.70;;;;;;;16.30;40.65;100130.40;108709;1280;142728;-58
2022/09/09 10:36:14;;;;;;;6.20;2.20;;;;;;;16.34;40.63;100131.03;108729;1280;22490;-58
2022/09/09 10:38:43;;;;;;;7.50;1.70;;;;;;;16.39;40.09;100127.73;108708;1280;22476;-58
2022/09/09 10:41:18;;;;;;;4.10;1.30;;;;;;;16.41;40.27;100131.23;105287;1281;137731;-57
2022/09/09 10:44:13;;;;;;;7.60;1.60;;;;;;;16.44;39.81;100131.11;104971;1281;22610;-57
2022/09/09 10:47:13;;;;;;;5.40;1.40;;;;;;;16.46;39.41;100129.66;104698;1281;137886;-57
2022/09/09 10:50:28;;;;;;;1.60;1.30;;;;;;;16.45;38.70;100130.38;104102;1287;22605;-57
2022/09/09 10:53:23;;;;;;;2.90;1.50;;;;;;;16.45;39.25;100127.80;103943;1287;137907;-57
2022/09/09 10:56:11;;;;;;;2.50;1.30;;;;;;;16.44;39.50;100123.02;104107;1287;22620;-57
2022/09/09 10:58:44;;;;;;;3.00;1.60;;;;;;;16.46;39.36;100127.08;103891;1290;137552;-57
2022/09/09 11:01:18;;;;;;;7.90;1.80;;;;;;;16.47;39.41;100133.11;104149;1287;22587;-57
2022/09/09 11:03:47;;;;;;;13.40;2.40;;;;;;;16.47;39.48;100133.02;103970;1287;137768;-57
2022/09/09 11:06:17;;;;;;;5.10;1.70;;;;;;;16.46;39.50;100140.55;103952;1290;22577;-57
2022/09/09 11:08:43;;;;;;;4.40;1.60;;;;;;;16.45;39.69;100143.59;108113;1287;22500;-57
2022/09/09 11:11:26;;;;;;;3.50;1.90;;;;;;;16.42;39.64;100136.91;108192;1280;138102;-57
2022/09/09 11:13:54;;;;;;;4.90;1.50;;;;;;;16.41;40.04;100132.56;108694;1281;22553;-58
2022/09/09 11:16:35;;;;;;;4.40;1.50;;;;;;;16.42;40.05;100130.31;108506;1282;137568;-57
2022/09/09 11:19:35;;;;;;;3.70;1.50;;;;;;;16.45;40.10;100137.88;108677;1281;22573;-58
2022/09/09 11:22:04;;;;;;;6.00;1.50;;;;;;;16.48;39.48;100134.10;108473;1281;137999;-57
2022/09/09 11:24:35;;;;;;;11.40;1.50;;;;;;;16.50;39.58;100137.95;108615;1281;22713;-57
2022/09/09 11:27:13;;;;;;;5.40;1.40;;;;;;;16.52;38.91;100137.40;109125;1274;22487;-57
2022/09/09 11:29:49;;;;;;;2.90;1.40;;;;;;;16.52;38.33;100138.17;109564;1271;22374;-57
2022/09/09 11:32:37;;;;;;;2.60;1.60;;;;;;;16.49;38.58;100135.98;109487;1273;22433;-57
2022/09/09 11:35:39;;;;;;;2.90;1.30;;;;;;;16.47;38.64;100135.92;109380;1271;138095;-57
2022/09/09 11:38:27;;;;;;;10.10;1.40;;;;;;;16.47;38.02;100131.36;109489;1274;23152;-58
2022/09/09 11:41:06;;;;;;;4.30;1.70;;;;;;;16.45;37.71;100127.52;109409;1271;140153;-58
2022/09/09 11:43:39;;;;;;;4.00;1.30;;;;;;;16.44;37.31;100125.23;109473;1271;22702;-58
2022/09/09 11:46:07;;;;;;;4.20;1.30;;;;;;;16.42;37.32;100115.02;109231;1273;137391;-57
2022/09/09 11:48:36;;;;;;;12.10;1.40;;;;;;;16.39;37.24;100112.49;109523;1274;22453;-58